createdAt,value
2023-03-15T00:01:14.641Z,2.50
2023-03-15T00:03:43.540Z,2.50
2023-03-15T00:06:14.311Z,2.50
2023-03-15T00:08:47.256Z,2.50
2023-03-15T00:11:16.215Z,2.40
2023-03-15T00:13:44.991Z,2.40
2023-03-15T00:16:17.471Z,2.40
2023-03-15T00:18:47.023Z,2.30
2023-03-15T00:21:16.884Z,2.30
2023-03-15T00:23:45.154Z,2.30
2023-03-15T00:26:13.699Z,2.30
2023-03-15T00:28:42.251Z,2.30
2023-03-15T00:31:20.638Z,2.30
2023-03-15T00:33:49.612Z,2.30
2023-03-15T00:36:19.592Z,2.30
2023-03-15T00:38:47.817Z,2.30
2023-03-15T00:41:17.939Z,2.30
2023-03-15T00:43:46.539Z,2.20
2023-03-15T00:46:15.732Z,2.20
2023-03-15T00:48:44.177Z,2.20
2023-03-15T00:51:14.829Z,2.10
2023-03-15T00:53:46.561Z,2.10
2023-03-15T00:56:17.956Z,2.10
2023-03-15T00:58:47.469Z,2.00
2023-03-15T01:01:17.817Z,2.10
2023-03-15T01:03:46.190Z,2.00
2023-03-15T01:06:16.099Z,1.90
2023-03-15T01:08:46.666Z,1.90
2023-03-15T01:11:17.411Z,1.90
2023-03-15T01:13:45.830Z,1.80
2023-03-15T01:16:15.728Z,1.80
2023-03-15T01:18:45.125Z,1.90
2023-03-15T01:21:15.975Z,1.90
2023-03-15T01:23:48.813Z,1.90
2023-03-15T01:26:18.436Z,2.00
2023-03-15T01:28:46.857Z,2.00
2023-03-15T01:31:19.932Z,2.10
2023-03-15T01:33:48.459Z,2.10
2023-03-15T01:36:16.765Z,2.00
2023-03-15T01:38:45.312Z,2.00
2023-03-15T01:41:16.842Z,2.00
2023-03-15T01:43:47.336Z,2.00
2023-03-15T01:46:24.621Z,2.00
2023-03-15T01:49:05.658Z,2.00
2023-03-15T01:51:42.253Z,2.00
2023-03-15T01:54:16.827Z,2.00
2023-03-15T01:56:51.938Z,1.90
2023-03-15T01:59:32.685Z,1.90
2023-03-15T02:02:04.806Z,1.90
2023-03-15T02:04:37.340Z,1.90
2023-03-15T02:07:08.832Z,1.90
2023-03-15T02:09:45.282Z,1.90
2023-03-15T02:12:15.182Z,2.00
2023-03-15T02:14:44.153Z,2.00
2023-03-15T02:17:16.779Z,2.00
2023-03-15T02:19:55.934Z,2.10
2023-03-15T02:22:33.483Z,2.10
2023-03-15T02:25:06.714Z,2.10
2023-03-15T02:27:37.928Z,2.10
2023-03-15T02:30:09.186Z,2.00
2023-03-15T02:32:37.639Z,2.00
2023-03-15T02:35:10.776Z,2.00
2023-03-15T02:37:39.261Z,2.10
2023-03-15T02:40:19.259Z,2.00
2023-03-15T02:42:52.841Z,1.90
2023-03-15T02:45:21.879Z,1.90
2023-03-15T02:47:52.486Z,1.90
2023-03-15T02:50:21.305Z,1.90
2023-03-15T02:52:49.508Z,1.90
2023-03-15T02:55:19.276Z,1.90
2023-03-15T02:57:49.947Z,1.90
2023-03-15T03:00:18.668Z,1.90
2023-03-15T03:02:49.131Z,1.80
2023-03-15T03:05:18.437Z,1.80
2023-03-15T03:07:47.797Z,1.80
2023-03-15T03:10:18.838Z,1.80
2023-03-15T03:12:54.852Z,1.80
2023-03-15T03:15:32.804Z,1.80
2023-03-15T03:18:04.786Z,1.80
2023-03-15T03:20:34.985Z,1.80
2023-03-15T03:23:09.410Z,1.70
2023-03-15T03:25:37.670Z,1.70
2023-03-15T03:28:08.914Z,1.70
2023-03-15T03:30:37.391Z,1.70
2023-03-15T03:33:07.452Z,1.60
2023-03-15T03:35:35.795Z,1.60
2023-03-15T03:38:07.489Z,1.60
2023-03-15T03:40:40.139Z,1.60
2023-03-15T03:43:13.373Z,1.60
2023-03-15T03:45:42.644Z,1.60
2023-03-15T03:48:12.206Z,1.50
2023-03-15T03:50:41.069Z,1.50
2023-03-15T03:53:09.291Z,1.50
2023-03-15T03:55:39.339Z,1.40
2023-03-15T03:58:07.594Z,1.40
2023-03-15T04:00:43.921Z,1.40
2023-03-15T04:03:12.464Z,1.50
2023-03-15T04:05:46.356Z,1.40
2023-03-15T04:08:18.852Z,1.40
2023-03-15T04:10:50.406Z,1.40
2023-03-15T04:13:18.957Z,1.40
2023-03-15T04:15:49.261Z,1.40
2023-03-15T04:18:18.567Z,1.40
2023-03-15T04:20:49.011Z,1.40
2023-03-15T04:23:20.187Z,1.40
2023-03-15T04:25:58.005Z,1.40
2023-03-15T04:28:46.244Z,1.40
2023-03-15T04:31:37.892Z,1.40
2023-03-15T04:34:17.727Z,1.30
2023-03-15T04:37:07.677Z,1.30
2023-03-15T04:39:55.950Z,1.30
2023-03-15T04:42:44.072Z,1.30
2023-03-15T04:45:33.020Z,1.30
2023-03-15T04:48:21.893Z,1.30
2023-03-15T04:51:10.488Z,1.30
2023-03-15T04:53:46.131Z,1.20
2023-03-15T04:56:36.534Z,1.20
2023-03-15T04:59:13.448Z,1.30
2023-03-15T05:02:04.930Z,1.30
2023-03-15T05:04:54.454Z,1.40
2023-03-15T05:07:38.683Z,1.50
2023-03-15T05:10:19.403Z,1.60
2023-03-15T05:13:07.660Z,1.60
2023-03-15T05:15:44.670Z,1.70
2023-03-15T05:18:33.628Z,1.70
2023-03-15T05:21:13.264Z,1.80
2023-03-15T05:23:51.594Z,1.80
2023-03-15T05:26:39.823Z,1.90
2023-03-15T05:29:27.967Z,2.00
2023-03-15T05:32:16.456Z,2.00
2023-03-15T05:35:08.537Z,2.00
2023-03-15T05:37:46.391Z,2.10
2023-03-15T05:40:32.919Z,2.10
2023-03-15T05:43:09.050Z,2.20
2023-03-15T05:45:49.920Z,2.10
2023-03-15T05:48:39.589Z,2.10
2023-03-15T05:51:17.060Z,2.00
2023-03-15T05:54:03.817Z,1.90
2023-03-15T05:56:52.009Z,1.90
2023-03-15T05:59:37.194Z,1.80
2023-03-15T06:02:14.202Z,1.70
2023-03-15T06:04:50.982Z,1.70
2023-03-15T06:07:23.358Z,1.70
2023-03-15T06:09:53.349Z,1.70
2023-03-15T06:12:21.737Z,1.70
2023-03-15T06:14:50.660Z,1.70
2023-03-15T06:17:19.183Z,1.70
2023-03-15T06:19:47.737Z,1.80
2023-03-15T06:22:19.979Z,1.90
2023-03-15T06:24:55.760Z,1.90
2023-03-15T06:27:25.525Z,2.00
2023-03-15T06:29:57.440Z,2.00
2023-03-15T06:32:26.640Z,2.00
2023-03-15T06:34:54.920Z,2.10
2023-03-15T06:37:34.556Z,2.10
2023-03-15T06:40:11.336Z,2.20
2023-03-15T06:42:41.618Z,2.30
2023-03-15T06:45:13.053Z,2.30
2023-03-15T06:47:41.409Z,2.30
2023-03-15T06:50:11.357Z,2.30
2023-03-15T06:52:39.791Z,2.30
2023-03-15T06:55:10.201Z,2.40
2023-03-15T06:57:38.716Z,2.40
2023-03-15T07:00:11.258Z,2.40
2023-03-15T07:02:39.744Z,2.50
2023-03-15T07:05:14.834Z,2.60
2023-03-15T07:07:43.196Z,2.60
2023-03-15T07:10:14.384Z,2.70
2023-03-15T07:12:42.861Z,2.70
2023-03-15T07:15:12.913Z,2.70
2023-03-15T07:17:42.067Z,2.70
2023-03-15T07:20:13.053Z,2.80
2023-03-15T07:22:41.356Z,3.00
2023-03-15T07:25:10.616Z,3.20
2023-03-15T07:27:40.352Z,3.40
2023-03-15T07:30:09.999Z,3.50
2023-03-15T07:32:39.058Z,3.60
2023-03-15T07:35:08.064Z,3.60
2023-03-15T07:37:36.300Z,3.60
2023-03-15T07:40:10.624Z,3.50
2023-03-15T07:42:41.083Z,3.30
2023-03-15T07:45:10.948Z,3.10
2023-03-15T07:47:43.123Z,3.00
2023-03-15T07:50:16.465Z,2.90
2023-03-15T07:52:45.331Z,2.80
2023-03-15T07:55:13.618Z,2.70
2023-03-15T07:57:43.135Z,2.70
2023-03-15T08:00:13.637Z,2.70
2023-03-15T08:02:42.329Z,2.80
2023-03-15T08:05:11.119Z,2.80
2023-03-15T08:07:39.598Z,2.90
2023-03-15T08:10:09.284Z,3.00
2023-03-15T08:12:39.290Z,3.00
2023-03-15T08:15:10.627Z,3.10
2023-03-15T08:17:39.275Z,3.20
2023-03-15T08:20:11.566Z,3.40
2023-03-15T08:22:41.650Z,3.60
2023-03-15T08:25:10.622Z,3.70
2023-03-15T08:27:39.083Z,3.80
2023-03-15T08:30:12.043Z,3.90
2023-03-15T08:32:40.783Z,3.90
2023-03-15T08:35:10.277Z,3.90
2023-03-15T08:37:38.613Z,4.00
2023-03-15T08:40:11.397Z,4.20
2023-03-15T08:42:40.308Z,4.30
2023-03-15T08:52:55.379Z,4.30
2023-03-15T08:55:23.869Z,4.30
2023-03-15T08:57:52.255Z,4.30
2023-03-15T09:07:53.014Z,4.80
2023-03-15T09:10:23.245Z,5.10
2023-03-15T09:12:53.935Z,5.10
2023-03-15T09:15:57.073Z,5.20
2023-03-15T09:18:26.038Z,5.40
2023-03-15T09:20:54.613Z,5.50
2023-03-15T09:23:23.753Z,5.50
2023-03-15T09:25:52.070Z,5.50
2023-03-15T09:28:20.556Z,5.70
2023-03-15T09:30:48.901Z,6.10
2023-03-15T09:33:18.670Z,6.40
2023-03-15T09:35:47.025Z,6.60
2023-03-15T09:38:15.338Z,6.50
2023-03-15T09:40:46.151Z,6.70
2023-03-15T09:43:39.018Z,6.90
2023-03-15T09:46:25.245Z,6.70
2023-03-15T09:49:00.894Z,7.00
2023-03-15T09:52:04.749Z,7.30
2023-03-15T09:54:41.442Z,7.20
2023-03-15T09:57:16.514Z,6.80
2023-03-15T09:59:49.258Z,6.60
2023-03-15T10:02:24.275Z,6.60
2023-03-15T10:04:59.144Z,6.60
2023-03-15T10:07:27.488Z,6.70
2023-03-15T10:09:58.845Z,7.00
2023-03-15T10:12:32.036Z,7.10
2023-03-15T10:15:17.378Z,6.90
2023-03-15T10:17:53.243Z,7.20
2023-03-15T10:20:27.047Z,7.90
2023-03-15T10:23:04.755Z,8.00
2023-03-15T10:25:33.761Z,7.80
2023-03-15T10:28:05.397Z,8.00
2023-03-15T10:30:35.293Z,8.00
2023-03-15T10:33:18.253Z,7.70
2023-03-15T10:35:48.050Z,7.30
2023-03-15T10:38:16.966Z,7.10
2023-03-15T10:40:47.931Z,7.40
2023-03-15T10:43:21.913Z,7.90
2023-03-15T10:46:05.622Z,7.70
2023-03-15T10:48:36.371Z,7.70
2023-03-15T10:51:09.259Z,7.80
2023-03-15T10:53:37.961Z,7.60
2023-03-15T10:56:22.259Z,7.40
2023-03-15T10:59:09.507Z,7.20
2023-03-15T11:01:39.890Z,7.10
2023-03-15T11:04:16.287Z,7.20
2023-03-15T11:06:48.653Z,7.30
2023-03-15T11:09:20.156Z,7.30
2023-03-15T11:12:10.221Z,7.10
2023-03-15T11:14:41.303Z,6.90
2023-03-15T11:17:18.115Z,7.10
2023-03-15T11:19:52.634Z,7.50
2023-03-15T11:22:22.617Z,7.60
2023-03-15T11:24:50.936Z,7.60
2023-03-15T11:27:23.500Z,7.40
2023-03-15T11:29:55.908Z,7.20
2023-03-15T11:32:26.364Z,6.90
2023-03-15T11:35:03.818Z,6.60
2023-03-15T11:37:39.270Z,6.20
2023-03-15T11:40:17.373Z,5.80
2023-03-15T11:42:50.431Z,5.60
2023-03-15T11:45:25.066Z,5.60
2023-03-15T11:47:57.787Z,5.70
2023-03-15T11:50:26.199Z,5.90
2023-03-15T11:52:55.836Z,6.00
2023-03-15T11:55:26.625Z,6.60
2023-03-15T11:57:57.777Z,7.20
2023-03-15T12:00:51.364Z,7.20
2023-03-15T12:03:35.294Z,7.00
2023-03-15T12:06:34.377Z,6.70
2023-03-15T12:09:25.188Z,6.50
2023-03-15T12:11:58.871Z,6.40
2023-03-15T12:14:30.292Z,6.90
2023-03-15T12:17:39.501Z,7.70
2023-03-15T12:20:22.570Z,8.20
2023-03-15T12:22:53.930Z,7.70
2023-03-15T12:25:31.635Z,7.20
2023-03-15T12:28:00.779Z,6.80
2023-03-15T12:30:34.276Z,6.50
2023-03-15T12:33:05.889Z,6.50
2023-03-15T12:35:41.531Z,6.60
2023-03-15T12:38:16.001Z,7.10
2023-03-15T12:40:54.588Z,7.40
2023-03-15T12:43:37.915Z,7.90
2023-03-15T12:46:06.868Z,7.90
2023-03-15T12:48:35.087Z,7.70
2023-03-15T12:51:43.612Z,7.60
2023-03-15T12:54:16.753Z,7.30
2023-03-15T12:56:51.607Z,7.40
2023-03-15T12:59:28.233Z,7.40
2023-03-15T13:01:58.104Z,7.40
2023-03-15T13:04:28.172Z,7.70
2023-03-15T13:07:13.238Z,7.40
2023-03-15T13:09:58.479Z,7.10
2023-03-15T13:12:33.304Z,6.90
2023-03-15T13:15:07.785Z,6.90
2023-03-15T13:17:42.890Z,7.00
2023-03-15T13:20:19.521Z,7.20
2023-03-15T13:22:56.516Z,6.90
2023-03-15T13:25:31.299Z,6.90
2023-03-15T13:28:08.003Z,7.50
2023-03-15T13:30:39.986Z,7.80
2023-03-15T13:33:23.457Z,7.40
2023-03-15T13:35:58.092Z,7.00
2023-03-15T13:38:30.724Z,7.00
2023-03-15T13:41:03.026Z,6.90
2023-03-15T13:43:34.491Z,7.20
2023-03-15T13:46:05.109Z,7.90
2023-03-15T13:48:35.403Z,8.30
2023-03-15T13:51:09.156Z,8.50
2023-03-15T13:53:49.417Z,8.90
2023-03-15T13:56:22.501Z,9.40
2023-03-15T13:58:53.042Z,9.90
2023-03-15T14:01:23.252Z,10.00
2023-03-15T14:03:59.082Z,9.40
2023-03-15T14:06:29.191Z,8.90
2023-03-15T14:09:05.096Z,8.20
2023-03-15T14:11:38.638Z,8.10
2023-03-15T14:14:27.986Z,8.30
2023-03-15T14:17:05.403Z,8.00
2023-03-15T14:19:36.795Z,8.30
2023-03-15T14:22:16.483Z,8.90
2023-03-15T14:24:48.183Z,9.30
2023-03-15T14:27:18.784Z,9.50
2023-03-15T14:29:50.960Z,9.50
2023-03-15T14:32:27.621Z,9.60
2023-03-15T14:35:04.764Z,9.70
2023-03-15T14:37:38.732Z,9.70
2023-03-15T14:40:15.260Z,9.40
2023-03-15T14:42:43.805Z,9.00
2023-03-15T14:45:14.534Z,9.10
2023-03-15T14:47:55.958Z,9.20
2023-03-15T14:50:26.879Z,9.00
2023-03-15T14:52:55.363Z,9.10
2023-03-15T14:55:25.936Z,9.00
2023-03-15T14:57:54.222Z,8.90
2023-03-15T15:00:24.819Z,9.00
2023-03-15T15:02:55.417Z,9.00
2023-03-15T15:05:26.159Z,9.10
2023-03-15T15:10:57.891Z,9.40
2023-03-15T15:13:27.659Z,9.50
2023-03-15T15:15:58.230Z,9.50
2023-03-15T15:18:28.686Z,9.70
2023-03-15T15:21:03.915Z,10.00
2023-03-15T15:23:41.791Z,10.10
2023-03-15T15:26:19.410Z,10.00
2023-03-15T15:28:49.424Z,9.70
2023-03-15T15:31:22.798Z,9.60
2023-03-15T15:33:51.716Z,9.50
2023-03-15T15:36:24.616Z,9.40
2023-03-15T15:38:53.480Z,9.30
2023-03-15T15:41:25.186Z,9.10
2023-03-15T15:43:54.059Z,9.10
2023-03-15T15:46:24.350Z,9.10
2023-03-15T15:48:53.190Z,9.20
2023-03-15T15:51:27.312Z,9.40
2023-03-15T15:53:58.103Z,9.30
2023-03-15T15:56:31.926Z,9.10
2023-03-15T15:59:06.554Z,8.90
2023-03-15T16:01:41.013Z,8.70
2023-03-15T16:04:14.526Z,8.70
2023-03-15T16:06:43.790Z,8.60
2023-03-15T16:09:14.422Z,8.60
2023-03-15T16:11:44.651Z,8.60
2023-03-15T16:14:14.037Z,8.60
2023-03-15T16:16:43.777Z,8.40
2023-03-15T16:19:11.960Z,8.30
2023-03-15T16:21:42.515Z,8.30
2023-03-15T16:24:16.589Z,8.20
2023-03-15T16:26:46.421Z,8.10
2023-03-15T16:29:18.838Z,8.10
2023-03-15T16:31:49.285Z,7.90
2023-03-15T16:34:19.411Z,7.80
2023-03-15T16:36:49.874Z,7.70
2023-03-15T16:39:18.826Z,7.70
2023-03-15T16:41:47.177Z,7.50
2023-03-15T16:44:17.140Z,7.40
2023-03-15T16:46:46.088Z,7.30
2023-03-15T16:49:16.615Z,7.20
2023-03-15T16:51:48.393Z,7.10
2023-03-15T16:54:30.624Z,7.00
2023-03-15T16:57:15.178Z,6.80
2023-03-15T16:59:43.398Z,6.70
2023-03-15T17:02:20.388Z,6.60
2023-03-15T17:04:50.919Z,6.50
2023-03-15T17:07:20.510Z,6.40
2023-03-15T17:09:50.365Z,6.20
2023-03-15T17:12:26.503Z,6.10
2023-03-15T17:14:57.207Z,6.00
2023-03-15T17:17:26.628Z,5.90
2023-03-15T17:19:56.345Z,5.70
2023-03-15T17:22:26.423Z,5.60
2023-03-15T17:24:55.015Z,5.40
2023-03-15T17:27:31.387Z,5.30
2023-03-15T17:29:59.942Z,5.00
2023-03-15T17:32:31.946Z,4.80
2023-03-15T17:35:05.660Z,4.60
2023-03-15T17:37:36.024Z,4.40
2023-03-15T17:40:18.687Z,4.30
2023-03-15T17:42:47.174Z,4.10
2023-03-15T17:45:18.232Z,3.90
2023-03-15T17:47:47.556Z,3.80
2023-03-15T17:50:18.025Z,3.70
2023-03-15T17:52:47.651Z,3.50
2023-03-15T17:55:18.092Z,3.40
2023-03-15T17:57:54.750Z,3.20
2023-03-15T18:00:24.778Z,3.10
2023-03-15T18:02:55.921Z,3.00
2023-03-15T18:05:27.897Z,2.90
2023-03-15T18:07:59.050Z,2.80
2023-03-15T18:10:33.190Z,2.60
2023-03-15T18:13:04.855Z,2.50
2023-03-15T18:15:33.934Z,2.40
2023-03-15T18:18:06.839Z,2.30
2023-03-15T18:20:36.521Z,2.20
2023-03-15T18:23:05.316Z,2.20
2023-03-15T18:25:35.577Z,2.20
2023-03-15T18:28:08.497Z,2.10
2023-03-15T18:30:37.022Z,2.10
2023-03-15T18:33:05.984Z,2.00
2023-03-15T18:35:37.458Z,2.00
2023-03-15T18:38:09.508Z,1.90
2023-03-15T18:40:37.927Z,1.80
2023-03-15T18:43:07.278Z,1.80
2023-03-15T18:45:36.865Z,1.80
2023-03-15T18:48:07.692Z,1.70
2023-03-15T18:50:38.004Z,1.70
2023-03-15T18:53:06.595Z,1.60
2023-03-15T18:55:35.570Z,1.40
2023-03-15T18:58:08.922Z,1.40
2023-03-15T19:00:37.697Z,1.20
2023-03-15T19:03:07.510Z,1.20
2023-03-15T19:05:39.224Z,1.10
2023-03-15T19:08:07.829Z,1.00
2023-03-15T19:10:36.034Z,1.00
2023-03-15T19:13:07.594Z,1.00
2023-03-15T19:15:35.972Z,0.90
2023-03-15T19:18:05.818Z,0.90
2023-03-15T19:20:37.302Z,0.80
2023-03-15T19:23:09.372Z,0.80
2023-03-15T19:25:37.696Z,0.80
2023-03-15T19:28:06.800Z,0.80
2023-03-15T19:30:35.445Z,0.70
2023-03-15T19:33:05.793Z,0.70
2023-03-15T19:35:34.591Z,0.70
2023-03-15T19:38:05.151Z,0.70
2023-03-15T19:40:33.654Z,0.70
2023-03-15T19:43:04.778Z,0.70
2023-03-15T19:45:33.243Z,0.60
2023-03-15T19:48:04.753Z,0.60
2023-03-15T19:50:33.948Z,0.60
2023-03-15T19:53:07.745Z,0.60
2023-03-15T19:55:37.406Z,0.70
2023-03-15T19:58:06.751Z,0.60
2023-03-15T20:00:35.287Z,0.60
2023-03-15T20:03:06.570Z,0.60
2023-03-15T20:05:37.056Z,0.60
2023-03-15T20:08:08.500Z,0.60
2023-03-15T20:10:38.371Z,0.50
2023-03-15T20:13:07.636Z,0.50
2023-03-15T20:15:35.995Z,0.50
2023-03-15T20:18:10.356Z,0.40
2023-03-15T20:20:38.691Z,0.40
2023-03-15T20:23:06.922Z,0.40
2023-03-15T20:25:35.809Z,0.40
2023-03-15T20:28:08.917Z,0.40
2023-03-15T20:30:40.297Z,0.30
2023-03-15T20:33:12.099Z,0.30
2023-03-15T20:35:41.121Z,0.30
2023-03-15T20:38:09.357Z,0.30
2023-03-15T20:40:39.538Z,0.30
2023-03-15T20:43:11.253Z,0.30
2023-03-15T20:45:39.685Z,0.30
2023-03-15T20:48:08.403Z,0.30
2023-03-15T20:50:36.699Z,0.30
2023-03-15T20:53:07.066Z,0.20
2023-03-15T20:55:35.341Z,0.20
2023-03-15T20:58:09.745Z,0.20
2023-03-15T21:00:40.869Z,0.10
2023-03-15T21:03:11.897Z,0.10
2023-03-15T21:05:43.098Z,0.10
2023-03-15T21:08:11.657Z,0.10
2023-03-15T21:10:40.305Z,0.10
2023-03-15T21:13:13.216Z,0.00
2023-03-15T21:15:45.724Z,0.00
2023-03-15T21:18:14.147Z,0.00
2023-03-15T21:20:42.506Z,0.00
2023-03-15T21:23:11.952Z,0.10
2023-03-15T21:25:40.314Z,0.00
2023-03-15T21:28:08.809Z,0.00
2023-03-15T21:30:39.972Z,0.00
2023-03-15T21:33:09.313Z,0.00
2023-03-15T21:35:37.724Z,0.00
2023-03-15T21:38:08.442Z,0.00
2023-03-15T21:40:36.780Z,-0.10
2023-03-15T21:43:06.505Z,-0.10
2023-03-15T21:45:34.979Z,-0.10
2023-03-15T21:48:09.359Z,-0.20
2023-03-15T21:50:37.760Z,-0.20
2023-03-15T21:53:06.534Z,-0.10
2023-03-15T21:55:34.901Z,-0.10
2023-03-15T21:58:06.502Z,-0.10
2023-03-15T22:00:34.884Z,-0.10
2023-03-15T22:03:07.933Z,-0.20
2023-03-15T22:05:36.556Z,-0.20
2023-03-15T22:08:07.048Z,-0.20
2023-03-15T22:10:35.391Z,-0.20
2023-03-15T22:13:06.647Z,-0.20
2023-03-15T22:15:34.941Z,-0.30
2023-03-15T22:18:05.705Z,-0.30
2023-03-15T22:20:35.564Z,-0.30
2023-03-15T22:23:06.718Z,-0.30
2023-03-15T22:25:35.244Z,-0.30
2023-03-15T22:28:11.050Z,-0.30
2023-03-15T22:30:40.231Z,-0.30
2023-03-15T22:33:09.656Z,-0.30
2023-03-15T22:35:39.487Z,-0.30
2023-03-15T22:38:10.150Z,-0.40
2023-03-15T22:40:40.120Z,-0.40
2023-03-15T22:43:09.516Z,-0.50
2023-03-15T22:45:38.118Z,-0.50
2023-03-15T22:48:06.705Z,-0.50
2023-03-15T22:50:35.127Z,-0.50
2023-03-15T22:53:07.936Z,-0.50
2023-03-15T22:55:36.262Z,-0.40
2023-03-15T22:58:06.612Z,-0.40
2023-03-15T23:00:35.786Z,-0.40
2023-03-15T23:03:05.673Z,-0.40
2023-03-15T23:05:35.563Z,-0.40
2023-03-15T23:08:08.340Z,-0.40
2023-03-15T23:10:38.246Z,-0.40
2023-03-15T23:13:12.588Z,-0.30
2023-03-15T23:15:41.070Z,-0.40
2023-03-15T23:18:09.683Z,-0.40
2023-03-15T23:20:38.493Z,-0.40
2023-03-15T23:23:10.189Z,-0.50
2023-03-15T23:25:39.578Z,-0.50
2023-03-15T23:28:08.529Z,-0.50
2023-03-15T23:30:38.768Z,-0.60
2023-03-15T23:33:08.769Z,-0.60
2023-03-15T23:35:37.264Z,-0.70
2023-03-15T23:38:06.649Z,-0.70
2023-03-15T23:40:36.746Z,-0.80
2023-03-15T23:43:09.221Z,-0.80
2023-03-15T23:45:37.595Z,-0.80
2023-03-15T23:48:07.101Z,-0.80
2023-03-15T23:50:35.451Z,-0.80
2023-03-15T23:53:07.504Z,-0.90
2023-03-15T23:55:37.068Z,-0.90
2023-03-15T23:58:08.501Z,-1.00
